createdAt,value
2022-09-01T09:49:36.346Z,14.77
2022-09-01T09:52:10.721Z,15.96
2022-09-01T09:55:06.425Z,18.01
2022-09-01T09:57:43.360Z,19.81
2022-09-01T10:00:29.275Z,20.53
2022-09-01T10:03:10.163Z,21.23
2022-09-01T10:05:51.951Z,21.28
2022-09-01T10:08:40.800Z,22.75
2022-09-01T10:11:12.169Z,23.63
2022-09-01T10:13:39.890Z,23.87
2022-09-01T10:16:22.054Z,24.47
2022-09-01T10:18:52.421Z,25.08
2022-09-01T10:21:30.537Z,26.03
2022-09-01T10:24:17.741Z,25.65
2022-09-01T10:26:57.002Z,26.00
2022-09-01T10:29:47.116Z,26.89
2022-09-01T10:32:37.605Z,27.68
2022-09-01T10:35:34.551Z,27.85
2022-09-01T10:38:14.806Z,28.22
2022-09-01T10:40:52.409Z,28.56
2022-09-01T10:43:48.169Z,29.20
2022-09-01T10:46:26.240Z,29.54
2022-09-01T10:49:02.211Z,29.83
2022-09-01T10:51:38.263Z,30.16
2022-09-01T10:54:07.214Z,30.10
2022-09-01T10:56:53.490Z,30.75
2022-09-01T10:59:31.623Z,30.46
2022-09-01T11:02:23.554Z,30.67
2022-09-01T11:05:02.086Z,30.91
2022-09-01T11:08:00.077Z,31.52
2022-09-01T11:10:52.811Z,31.44
2022-09-01T11:13:38.800Z,31.43
2022-09-01T11:16:49.203Z,32.00
2022-09-01T11:19:45.797Z,32.34
2022-09-01T11:22:18.096Z,32.59
2022-09-01T11:25:00.287Z,32.95
2022-09-01T11:27:50.721Z,32.93
2022-09-01T11:30:31.064Z,33.39
2022-09-01T11:33:12.199Z,32.93
2022-09-01T11:35:45.906Z,32.76
2022-09-01T11:38:20.518Z,32.60
2022-09-01T11:40:58.116Z,32.38
2022-09-01T11:43:31.283Z,32.62
2022-09-01T11:46:07.548Z,32.95
2022-09-01T11:48:38.225Z,33.23
2022-09-01T11:51:06.624Z,33.44
2022-09-01T11:53:34.678Z,33.76
2022-09-01T11:56:13.858Z,34.11
2022-09-01T11:58:43.092Z,34.30
2022-09-01T12:01:22.308Z,34.15
2022-09-01T12:03:56.103Z,34.34
2022-09-01T12:06:32.312Z,34.16
2022-09-01T12:09:05.347Z,33.71
2022-09-01T12:11:37.865Z,33.84
2022-09-01T12:14:12.013Z,34.04
2022-09-01T12:16:43.880Z,34.19
2022-09-01T12:19:24.625Z,34.19
2022-09-01T12:22:19.534Z,34.39
2022-09-01T12:24:55.898Z,34.49
2022-09-01T12:27:23.932Z,34.75
2022-09-01T12:30:00.362Z,34.56
2022-09-01T12:32:33.630Z,34.68
2022-09-01T12:35:27.618Z,34.62
2022-09-01T12:38:26.794Z,34.23
2022-09-01T12:41:00.013Z,34.70
2022-09-01T12:43:34.292Z,34.27
2022-09-01T12:46:09.376Z,34.26
2022-09-01T12:48:44.759Z,34.90
2022-09-01T12:51:18.834Z,34.55
2022-09-01T12:53:58.533Z,34.81
2022-09-01T12:56:41.419Z,34.99
2022-09-01T12:59:35.990Z,34.74
2022-09-01T13:02:36.934Z,34.66
2022-09-01T13:05:40.971Z,34.44
2022-09-01T13:08:18.149Z,34.79
2022-09-01T13:10:52.747Z,34.94
2022-09-01T13:13:24.330Z,34.54
2022-09-01T13:15:57.694Z,34.39
2022-09-01T13:18:29.073Z,34.35
2022-09-01T13:20:59.357Z,34.62
2022-09-01T13:23:27.131Z,34.43
2022-09-01T13:25:55.750Z,34.61
2022-09-01T13:36:46.512Z,34.67
2022-09-01T13:39:17.339Z,34.23
2022-09-01T13:41:50.131Z,34.33
2022-09-01T13:44:23.229Z,34.55
2022-09-01T13:49:44.590Z,34.30
2022-09-01T13:52:27.652Z,33.88
2022-09-01T13:54:55.598Z,33.52
2022-09-01T13:57:24.009Z,33.34
2022-09-01T13:59:53.424Z,33.19
2022-09-01T14:02:21.597Z,33.30
2022-09-01T14:04:49.649Z,32.88
2022-09-01T14:07:18.997Z,33.28
2022-09-01T14:09:46.990Z,32.58
2022-09-01T14:12:15.592Z,32.77
2022-09-01T14:17:35.263Z,33.01
2022-09-01T14:20:12.495Z,33.00
2022-09-01T14:22:41.213Z,32.78
2022-09-01T14:25:10.682Z,33.16
2022-09-01T14:27:39.729Z,33.23
2022-09-01T14:30:10.157Z,32.93
2022-09-01T14:32:41.852Z,33.05
2022-09-01T14:35:09.831Z,32.98
2022-09-01T14:37:42.498Z,33.03
2022-09-01T14:40:16.577Z,33.05
2022-09-01T14:42:49.699Z,32.86
2022-09-01T14:45:28.774Z,32.48
2022-09-01T14:48:01.148Z,32.25
2022-09-01T14:50:35.901Z,32.38
2022-09-01T14:53:05.165Z,32.66
2022-09-01T14:55:34.192Z,32.61
2022-09-01T14:58:06.813Z,32.61
2022-09-01T15:00:37.642Z,32.52
2022-09-01T15:03:05.912Z,32.93
2022-09-01T15:05:40.034Z,32.83
2022-09-01T15:08:12.976Z,33.10
2022-09-01T15:10:45.183Z,33.22
2022-09-01T15:13:13.782Z,33.36
2022-09-01T15:15:41.725Z,33.32
2022-09-01T15:18:09.561Z,33.70
2022-09-01T15:20:45.138Z,33.85
2022-09-01T15:23:22.434Z,33.75
2022-09-01T15:25:53.234Z,33.89
2022-09-01T15:28:22.733Z,33.94
2022-09-01T15:30:53.456Z,34.16
2022-09-01T15:33:22.296Z,34.06
2022-09-01T15:35:50.377Z,34.09
2022-09-01T15:38:18.553Z,33.96
2022-09-01T15:40:57.013Z,33.88
2022-09-01T15:43:31.179Z,33.89
2022-09-01T15:46:05.550Z,34.09
2022-09-01T15:48:35.054Z,34.32
2022-09-01T15:51:21.903Z,34.41
2022-09-01T15:53:53.329Z,34.56
2022-09-01T15:56:23.083Z,34.78
2022-09-01T15:59:01.612Z,34.88
2022-09-01T16:01:36.312Z,35.07
2022-09-01T16:04:07.355Z,35.05
2022-09-01T16:06:42.180Z,35.21
2022-09-01T16:09:12.585Z,35.30
2022-09-01T16:11:42.717Z,35.55
2022-09-01T16:14:12.112Z,35.51
2022-09-01T16:16:59.712Z,35.66
2022-09-01T16:19:52.974Z,35.89
2022-09-01T16:22:28.357Z,36.16
2022-09-01T16:25:06.217Z,36.43
2022-09-01T16:27:41.320Z,36.50
2022-09-01T16:30:16.813Z,36.68
2022-09-01T16:32:48.552Z,36.83
2022-09-01T16:35:22.528Z,37.06
2022-09-01T16:38:35.387Z,36.87
2022-09-01T16:41:18.921Z,37.23
2022-09-01T16:44:00.677Z,37.35
2022-09-01T16:46:38.150Z,37.11
2022-09-01T16:49:35.558Z,37.61
2022-09-01T16:52:11.589Z,37.69
2022-09-01T16:54:59.554Z,37.96
2022-09-01T16:57:59.039Z,38.07
2022-09-01T17:00:54.363Z,38.54
2022-09-01T17:03:42.885Z,38.86
2022-09-01T17:06:31.988Z,38.96
2022-09-01T17:09:10.420Z,39.32
2022-09-01T17:12:05.608Z,39.79
2022-09-01T17:14:48.449Z,39.70
2022-09-01T17:17:22.946Z,39.96
2022-09-01T17:19:55.590Z,40.36
2022-09-01T17:22:25.877Z,40.52
2022-09-01T17:25:13.722Z,40.90
2022-09-01T17:27:58.321Z,41.31
2022-09-01T17:30:28.158Z,41.31
2022-09-01T17:33:18.442Z,41.40
2022-09-01T17:36:15.879Z,41.78
2022-09-01T17:39:05.274Z,41.92
2022-09-01T17:41:55.980Z,42.02
2022-09-01T17:45:02.854Z,42.44
2022-09-01T17:47:40.941Z,42.52
2022-09-01T17:50:31.855Z,42.96
2022-09-01T17:53:11.422Z,43.04
2022-09-01T17:55:59.963Z,43.45
2022-09-01T17:58:57.755Z,43.74
2022-09-01T18:01:33.771Z,44.02
2022-09-01T18:04:56.119Z,44.33
2022-09-01T18:07:39.454Z,44.31
2022-09-01T18:10:14.663Z,44.83
2022-09-01T18:13:00.721Z,45.17
2022-09-01T18:15:52.465Z,45.48
2022-09-01T18:18:35.943Z,45.61
2022-09-01T18:21:20.613Z,46.57
2022-09-01T18:24:08.849Z,46.78
2022-09-01T18:26:41.348Z,46.78
2022-09-01T18:29:13.912Z,47.21
2022-09-01T18:32:12.578Z,47.16
2022-09-01T18:35:01.840Z,47.82
2022-09-01T18:37:46.624Z,48.21
2022-09-01T18:40:33.147Z,48.57
2022-09-01T18:43:26.827Z,48.56
2022-09-01T18:46:03.994Z,48.88
2022-09-01T18:49:15.951Z,49.71
2022-09-01T18:51:59.816Z,49.26
2022-09-01T18:54:37.225Z,49.21
2022-09-01T18:57:09.513Z,49.65
2022-09-01T18:59:55.978Z,49.61
2022-09-01T19:02:52.886Z,50.54
2022-09-01T19:05:33.487Z,50.54
2022-09-01T19:08:24.908Z,50.59
2022-09-01T19:11:21.885Z,50.78
2022-09-01T19:14:04.585Z,51.02
2022-09-01T19:16:58.908Z,51.02
2022-09-01T19:19:45.579Z,51.16
2022-09-01T19:22:31.675Z,51.47
2022-09-01T19:25:27.403Z,51.55
2022-09-01T19:28:05.179Z,52.14
2022-09-01T19:30:42.071Z,52.58
2022-09-01T19:33:14.939Z,53.22
2022-09-01T19:35:49.265Z,52.95
2022-09-01T19:38:27.682Z,53.08
2022-09-01T19:41:13.728Z,53.58
2022-09-01T19:43:43.502Z,53.77
2022-09-01T19:46:30.528Z,53.91
2022-09-01T19:49:18.654Z,53.79
2022-09-01T19:51:59.042Z,53.95
2022-09-01T19:54:56.753Z,54.03
2022-09-01T19:57:39.187Z,54.31
2022-09-01T20:00:24.358Z,54.67
2022-09-01T20:03:07.728Z,54.66
2022-09-01T20:05:41.038Z,54.78
2022-09-01T20:08:38.518Z,55.00
2022-09-01T20:11:33.718Z,55.37
2022-09-01T20:14:41.263Z,55.46
2022-09-01T20:17:20.011Z,56.01
2022-09-01T20:19:59.208Z,56.45
2022-09-01T20:22:57.328Z,56.70
2022-09-01T20:25:33.516Z,56.78
2022-09-01T20:28:21.369Z,56.76
2022-09-01T20:31:01.264Z,56.62
2022-09-01T20:33:35.201Z,57.59
2022-09-01T20:36:30.452Z,58.15
2022-09-01T20:39:32.405Z,58.06
2022-09-01T20:42:13.915Z,57.77
2022-09-01T20:44:54.894Z,58.11
2022-09-01T20:47:29.454Z,58.75
2022-09-01T20:50:01.935Z,58.65
2022-09-01T20:53:01.274Z,58.87
2022-09-01T20:55:29.028Z,59.27
2022-09-01T20:58:16.141Z,59.30
2022-09-01T21:01:17.534Z,59.76
2022-09-01T21:04:06.434Z,60.14
2022-09-01T21:07:03.079Z,60.29
2022-09-01T21:09:57.893Z,60.28
2022-09-01T21:12:44.367Z,60.34
2022-09-01T21:15:27.679Z,60.96
2022-09-01T21:18:33.496Z,61.33
2022-09-01T21:21:17.908Z,61.77
2022-09-01T21:23:47.661Z,61.72
2022-09-01T21:26:17.812Z,61.75
2022-09-01T21:28:51.536Z,61.86
2022-09-01T21:31:21.351Z,62.36
2022-09-01T21:33:49.354Z,62.34
2022-09-01T21:36:20.145Z,62.22
2022-09-01T21:38:47.862Z,62.54
2022-09-01T21:41:16.705Z,62.63
2022-09-01T21:43:48.289Z,62.73
2022-09-01T21:46:18.837Z,62.71
2022-09-01T21:48:51.385Z,63.11
2022-09-01T21:51:19.183Z,63.23
2022-09-01T21:53:46.965Z,63.18
2022-09-01T21:56:19.773Z,63.36
2022-09-01T21:59:00.611Z,63.99
2022-09-01T22:01:33.692Z,63.93
2022-09-01T22:04:04.775Z,64.27
2022-09-01T22:06:35.951Z,64.28
2022-09-01T22:09:20.623Z,64.34
2022-09-01T22:11:52.779Z,64.51
2022-09-01T22:14:23.316Z,64.28
2022-09-01T22:16:53.773Z,64.41
2022-09-01T22:19:22.817Z,64.61
2022-09-01T22:21:54.720Z,64.81
2022-09-01T22:24:24.667Z,64.86
2022-09-01T22:26:54.624Z,65.06
2022-09-01T22:29:22.960Z,65.17
2022-09-01T22:31:50.726Z,65.42
2022-09-01T22:34:18.453Z,65.59
2022-09-01T22:36:50.348Z,65.62
2022-09-01T22:39:25.129Z,66.07
2022-09-01T22:41:58.471Z,66.26
2022-09-01T22:44:27.101Z,66.40
2022-09-01T22:46:54.997Z,66.68
2022-09-01T22:49:22.815Z,66.68
2022-09-01T22:51:52.733Z,66.90
2022-09-01T22:54:20.595Z,66.92
2022-09-01T22:56:50.579Z,66.78
2022-09-01T22:59:19.780Z,66.67
2022-09-01T23:01:51.476Z,66.96
2022-09-01T23:04:20.474Z,67.12
2022-09-01T23:06:52.591Z,67.28
2022-09-01T23:09:22.540Z,67.34
2022-09-01T23:11:52.934Z,67.49
2022-09-01T23:14:22.904Z,67.61
2022-09-01T23:16:54.233Z,67.75
2022-09-01T23:19:24.463Z,67.87
2022-09-01T23:21:55.488Z,68.08
2022-09-01T23:24:25.653Z,68.08
2022-09-01T23:26:55.698Z,68.33
2022-09-01T23:29:27.761Z,68.27
2022-09-01T23:31:59.739Z,68.13
2022-09-01T23:34:27.634Z,68.16
2022-09-01T23:36:57.590Z,68.26
2022-09-01T23:39:27.820Z,68.40
2022-09-01T23:41:57.179Z,68.62
2022-09-01T23:44:26.292Z,68.93
2022-09-01T23:46:53.973Z,68.96
2022-09-01T23:49:21.916Z,68.95
2022-09-01T23:51:54.663Z,69.00
2022-09-01T23:54:23.519Z,69.25
2022-09-01T23:56:53.542Z,69.69
2022-09-01T23:59:24.226Z,69.46
